createdAt,value
2023-02-14T00:01:28.567Z,3.90
2023-02-14T00:04:15.540Z,3.90
2023-02-14T00:07:01.220Z,3.90
2023-02-14T00:09:46.152Z,3.90
2023-02-14T00:12:31.549Z,3.90
2023-02-14T00:15:22.632Z,3.90
2023-02-14T00:18:07.630Z,3.80
2023-02-14T00:20:52.872Z,3.80
2023-02-14T00:23:38.404Z,3.70
2023-02-14T00:26:23.754Z,3.80
2023-02-14T00:29:12.005Z,3.80
2023-02-14T00:31:57.615Z,3.70
2023-02-14T00:34:43.031Z,3.80
2023-02-14T00:37:28.450Z,3.80
2023-02-14T00:40:15.913Z,3.70
2023-02-14T00:43:01.195Z,3.60
2023-02-14T00:45:46.656Z,3.60
2023-02-14T00:48:32.010Z,3.60
2023-02-14T00:51:18.478Z,3.70
2023-02-14T00:54:03.990Z,3.50
2023-02-14T00:56:49.330Z,3.60
2023-02-14T00:59:34.671Z,3.50
2023-02-14T01:02:19.968Z,3.60
2023-02-14T01:05:05.778Z,3.50
2023-02-14T01:07:50.812Z,3.50
2023-02-14T01:10:37.689Z,3.40
2023-02-14T01:13:23.609Z,3.40
2023-02-14T01:16:11.802Z,3.50
2023-02-14T01:19:00.120Z,3.40
2023-02-14T01:21:45.318Z,3.40
2023-02-14T01:24:30.633Z,3.40
2023-02-14T01:27:15.972Z,3.40
2023-02-14T01:30:01.401Z,3.40
2023-02-14T01:32:46.757Z,3.50
2023-02-14T01:35:32.329Z,3.50
2023-02-14T01:38:17.597Z,3.50
2023-02-14T01:41:03.165Z,3.40
2023-02-14T01:43:54.428Z,3.40
2023-02-14T01:46:40.861Z,3.40
2023-02-14T01:49:52.764Z,3.40
2023-02-14T01:52:44.932Z,3.40
2023-02-14T01:55:37.935Z,3.30
2023-02-14T01:58:26.383Z,3.30
2023-02-14T02:01:16.506Z,3.30
2023-02-14T02:04:10.275Z,3.30
2023-02-14T02:06:59.756Z,3.20
2023-02-14T02:09:54.449Z,3.20
2023-02-14T02:12:40.277Z,3.20
2023-02-14T02:15:27.621Z,3.20
2023-02-14T02:18:18.626Z,3.20
2023-02-14T02:21:27.852Z,3.20
2023-02-14T02:24:18.512Z,3.10
2023-02-14T02:27:21.851Z,3.10
2023-02-14T02:30:34.494Z,3.00
2023-02-14T02:33:37.965Z,2.90
2023-02-14T02:36:28.208Z,2.90
2023-02-14T02:39:44.771Z,2.90
2023-02-14T02:42:48.789Z,2.90
2023-02-14T02:46:06.114Z,3.00
2023-02-14T02:49:06.621Z,3.00
2023-02-14T02:52:14.264Z,2.90
2023-02-14T02:55:06.253Z,2.90
2023-02-14T02:57:53.445Z,2.80
2023-02-14T03:03:45.419Z,2.80
2023-02-14T03:06:31.831Z,2.80
2023-02-14T03:09:20.143Z,2.80
2023-02-14T03:12:42.738Z,2.80
2023-02-14T03:15:27.811Z,2.80
2023-02-14T03:19:00.817Z,2.80
2023-02-14T03:22:05.141Z,2.80
2023-02-14T03:25:03.016Z,2.80
2023-02-14T03:27:57.675Z,2.80
2023-02-14T03:30:59.519Z,2.90
2023-02-14T03:33:57.979Z,2.90
2023-02-14T03:36:56.775Z,2.90
2023-02-14T03:40:00.022Z,2.90
2023-02-14T03:42:48.657Z,2.90
2023-02-14T03:45:40.930Z,2.90
2023-02-14T03:48:28.445Z,3.00
2023-02-14T03:51:15.965Z,2.90
2023-02-14T03:54:03.913Z,3.00
2023-02-14T03:57:00.224Z,3.00
2023-02-14T03:59:45.361Z,3.00
2023-02-14T04:02:46.630Z,3.00
2023-02-14T04:05:31.882Z,3.00
2023-02-14T04:08:22.519Z,3.10
2023-02-14T04:11:07.622Z,3.10
2023-02-14T04:13:53.059Z,3.20
2023-02-14T04:16:57.541Z,3.20
2023-02-14T04:19:42.832Z,3.20
2023-02-14T04:22:28.238Z,3.20
2023-02-14T04:25:14.484Z,3.20
2023-02-14T04:27:59.696Z,3.20
2023-02-14T04:30:45.008Z,3.20
2023-02-14T04:33:30.827Z,3.20
2023-02-14T04:36:16.175Z,3.20
2023-02-14T04:39:01.505Z,3.30
2023-02-14T04:41:46.823Z,3.10
2023-02-14T04:44:34.018Z,3.10
2023-02-14T04:47:19.357Z,3.20
2023-02-14T04:50:05.527Z,2.90
2023-02-14T04:52:50.892Z,2.90
2023-02-14T04:55:36.304Z,3.00
2023-02-14T04:58:21.815Z,2.80
2023-02-14T05:01:07.162Z,2.90
2023-02-14T05:03:52.540Z,2.90
2023-02-14T05:06:37.836Z,3.00
2023-02-14T05:09:23.390Z,2.90
2023-02-14T05:12:08.831Z,2.90
2023-02-14T05:14:54.235Z,2.90
2023-02-14T05:17:39.726Z,3.00
2023-02-14T05:20:24.818Z,3.00
2023-02-14T05:23:13.688Z,2.90
2023-02-14T05:25:59.298Z,2.90
2023-02-14T05:28:44.674Z,3.00
2023-02-14T05:31:30.262Z,3.00
2023-02-14T05:34:15.602Z,3.00
2023-02-14T05:37:02.447Z,3.00
2023-02-14T05:39:47.840Z,3.00
2023-02-14T05:42:33.246Z,2.70
2023-02-14T05:45:19.178Z,2.50
2023-02-14T05:48:06.059Z,2.50
2023-02-14T05:50:51.345Z,2.40
2023-02-14T05:53:36.989Z,2.40
2023-02-14T05:56:22.238Z,2.50
2023-02-14T05:59:07.618Z,2.50
2023-02-14T06:01:52.999Z,2.40
2023-02-14T06:04:38.177Z,2.50
2023-02-14T06:07:23.746Z,2.40
2023-02-14T06:10:10.062Z,2.60
2023-02-14T06:12:55.657Z,2.60
2023-02-14T06:15:41.204Z,2.70
2023-02-14T06:18:29.493Z,2.80
2023-02-14T06:21:14.566Z,2.90
2023-02-14T06:23:59.788Z,2.90
2023-02-14T06:26:45.153Z,2.90
2023-02-14T06:29:30.694Z,3.00
2023-02-14T06:32:16.235Z,3.10
2023-02-14T06:35:03.376Z,3.20
2023-02-14T06:37:48.706Z,3.10
2023-02-14T06:40:34.143Z,3.00
2023-02-14T06:43:19.452Z,2.90
2023-02-14T06:46:04.912Z,3.00
2023-02-14T06:48:50.266Z,2.80
2023-02-14T06:51:35.617Z,2.60
2023-02-14T06:54:20.932Z,2.40
2023-02-14T06:57:06.466Z,2.40
2023-02-14T06:59:51.675Z,2.50
2023-02-14T07:02:37.037Z,2.60
2023-02-14T07:05:22.325Z,2.60
2023-02-14T07:08:08.169Z,2.70
2023-02-14T07:10:58.232Z,2.50
2023-02-14T07:13:44.173Z,2.70
2023-02-14T07:16:29.349Z,2.80
2023-02-14T07:19:14.837Z,2.80
2023-02-14T07:22:00.768Z,2.80
2023-02-14T07:24:46.252Z,2.80
2023-02-14T07:27:31.723Z,2.50
2023-02-14T07:30:17.043Z,2.50
2023-02-14T07:33:02.413Z,2.40
2023-02-14T07:35:47.610Z,2.50
2023-02-14T07:38:33.269Z,2.50
2023-02-14T07:41:18.963Z,2.50
2023-02-14T07:44:04.502Z,2.60
2023-02-14T07:46:49.854Z,2.70
2023-02-14T07:49:35.926Z,2.60
2023-02-14T07:52:21.199Z,2.50
2023-02-14T07:55:07.498Z,2.60
2023-02-14T07:57:52.883Z,2.70
2023-02-14T08:00:38.360Z,2.80
2023-02-14T08:03:23.752Z,2.90
2023-02-14T08:06:09.952Z,2.90
2023-02-14T08:08:55.124Z,3.00
2023-02-14T08:11:59.063Z,3.00
2023-02-14T08:14:44.630Z,3.10
2023-02-14T08:17:30.141Z,3.10
2023-02-14T08:20:15.678Z,3.20
2023-02-14T08:23:01.034Z,3.20
2023-02-14T08:25:50.532Z,3.00
2023-02-14T08:28:36.104Z,3.10
2023-02-14T08:31:35.015Z,3.10
2023-02-14T08:34:21.053Z,3.20
2023-02-14T08:37:06.791Z,3.20
2023-02-14T08:39:51.778Z,3.30
2023-02-14T08:42:37.119Z,3.40
2023-02-14T08:45:22.808Z,3.30
2023-02-14T08:48:10.849Z,3.30
2023-02-14T08:50:55.951Z,3.30
2023-02-14T08:53:41.701Z,3.20
2023-02-14T08:56:27.082Z,3.20
2023-02-14T08:59:12.388Z,3.20
2023-02-14T09:01:57.818Z,3.30
2023-02-14T09:04:43.241Z,3.40
2023-02-14T09:07:28.638Z,3.50
2023-02-14T09:10:14.182Z,3.50
2023-02-14T09:12:59.511Z,3.50
2023-02-14T09:15:44.810Z,3.20
2023-02-14T09:18:30.223Z,3.20
2023-02-14T09:21:18.564Z,3.20
2023-02-14T09:24:04.060Z,3.30
2023-02-14T09:26:49.442Z,3.30
2023-02-14T09:29:35.173Z,3.30
2023-02-14T09:32:20.626Z,3.00
2023-02-14T09:35:06.894Z,3.00
2023-02-14T09:37:52.031Z,3.00
2023-02-14T09:40:37.597Z,3.20
2023-02-14T09:43:32.439Z,3.20
2023-02-14T09:46:18.763Z,3.80
2023-02-14T09:49:04.509Z,3.30
2023-02-14T09:51:52.555Z,3.30
2023-02-14T09:54:38.012Z,3.00
2023-02-14T09:57:34.493Z,3.00
2023-02-14T10:00:39.918Z,3.00
2023-02-14T10:03:51.004Z,3.00
2023-02-14T10:06:45.297Z,3.10
2023-02-14T10:09:54.385Z,3.20
2023-02-14T10:12:45.999Z,3.20
2023-02-14T10:15:39.858Z,3.30
2023-02-14T10:18:51.519Z,3.40
2023-02-14T10:21:43.739Z,3.50
2023-02-14T10:24:40.179Z,3.50
2023-02-14T10:27:42.277Z,3.40
2023-02-14T10:30:33.360Z,3.40
2023-02-14T10:33:22.645Z,3.40
2023-02-14T10:36:34.985Z,3.30
2023-02-14T10:39:54.925Z,3.30
2023-02-14T10:42:43.380Z,3.50
2023-02-14T10:45:53.916Z,3.40
2023-02-14T10:49:02.595Z,3.40
2023-02-14T10:52:14.017Z,3.30
2023-02-14T10:55:05.688Z,3.30
2023-02-14T10:57:54.857Z,3.40
2023-02-14T11:01:03.729Z,3.50
2023-02-14T11:04:04.221Z,3.40
2023-02-14T11:06:50.324Z,3.30
2023-02-14T11:09:35.376Z,3.50
2023-02-14T11:12:39.779Z,3.40
2023-02-14T11:15:30.692Z,3.30
2023-02-14T11:18:24.687Z,3.50
2023-02-14T11:21:13.000Z,3.40
2023-02-14T11:23:58.495Z,3.30
2023-02-14T11:26:50.039Z,3.20
2023-02-14T11:29:41.362Z,3.30
2023-02-14T11:32:29.541Z,3.30
2023-02-14T11:35:24.124Z,3.40
2023-02-14T11:38:34.712Z,3.60
2023-02-14T11:41:20.116Z,3.60
2023-02-14T11:44:22.128Z,3.80
2023-02-14T11:47:27.750Z,3.90
2023-02-14T11:50:25.895Z,3.80
2023-02-14T11:53:13.476Z,3.70
2023-02-14T11:56:00.704Z,4.00
2023-02-14T11:59:04.043Z,4.10
2023-02-14T12:01:50.948Z,4.30
2023-02-14T12:04:46.142Z,4.30
2023-02-14T12:07:39.130Z,4.20
2023-02-14T12:10:26.845Z,4.10
2023-02-14T12:13:12.123Z,4.10
2023-02-14T12:15:58.810Z,4.10
2023-02-14T12:19:12.880Z,4.10
2023-02-14T12:22:02.760Z,4.30
2023-02-14T12:25:09.964Z,4.20
2023-02-14T12:28:09.603Z,4.10
2023-02-14T12:30:54.940Z,4.10
2023-02-14T12:33:40.996Z,4.10
2023-02-14T12:37:03.098Z,4.10
2023-02-14T12:40:19.611Z,4.40
2023-02-14T12:43:45.122Z,4.50
2023-02-14T12:46:51.843Z,4.50
2023-02-14T12:49:57.796Z,4.50
2023-02-14T12:53:01.198Z,4.60
2023-02-14T12:56:21.225Z,4.70
2023-02-14T12:59:41.814Z,4.70
2023-02-14T13:02:54.542Z,4.70
2023-02-14T13:06:02.039Z,4.70
2023-02-14T13:09:12.013Z,4.60
2023-02-14T13:12:31.166Z,4.70
2023-02-14T13:15:30.752Z,4.70
2023-02-14T13:18:34.758Z,4.80
2023-02-14T13:21:27.575Z,4.80
2023-02-14T13:24:18.491Z,4.80
2023-02-14T13:27:08.436Z,5.00
2023-02-14T13:30:01.021Z,5.10
2023-02-14T13:32:48.437Z,5.10
2023-02-14T13:35:34.400Z,5.10
2023-02-14T13:38:20.571Z,5.20
2023-02-14T13:41:09.387Z,5.20
2023-02-14T13:44:00.043Z,5.30
2023-02-14T13:46:48.692Z,5.40
2023-02-14T13:49:37.446Z,6.20
2023-02-14T13:52:43.380Z,6.50
2023-02-14T13:55:42.662Z,6.30
2023-02-14T13:58:28.509Z,6.00
2023-02-14T14:01:34.052Z,5.70
2023-02-14T14:04:28.588Z,5.50
2023-02-14T14:07:18.607Z,5.40
2023-02-14T14:10:05.358Z,5.50
2023-02-14T14:12:52.053Z,5.50
2023-02-14T14:15:37.513Z,5.40
2023-02-14T14:18:29.292Z,5.30
2023-02-14T14:21:29.575Z,5.20
2023-02-14T14:24:40.766Z,5.10
2023-02-14T14:27:34.426Z,5.10
2023-02-14T14:30:25.416Z,5.10
2023-02-14T14:33:23.435Z,5.20
2023-02-14T14:36:12.275Z,5.10
2023-02-14T14:38:57.252Z,5.20
2023-02-14T14:41:43.590Z,5.10
2023-02-14T14:44:28.704Z,5.10
2023-02-14T14:47:24.379Z,5.20
2023-02-14T14:50:20.628Z,5.00
2023-02-14T14:53:11.576Z,5.10
2023-02-14T14:55:57.305Z,5.10
2023-02-14T14:58:42.631Z,5.10
2023-02-14T15:01:36.852Z,5.20
2023-02-14T15:04:28.727Z,5.00
2023-02-14T15:07:34.284Z,5.00
2023-02-14T15:10:29.776Z,4.90
2023-02-14T15:13:33.813Z,4.90
2023-02-14T15:16:24.049Z,5.00
2023-02-14T15:19:34.299Z,4.90
2023-02-14T15:22:27.017Z,4.90
2023-02-14T15:25:26.297Z,4.80
2023-02-14T15:28:26.997Z,4.70
2023-02-14T15:31:12.741Z,4.60
2023-02-14T15:34:00.094Z,4.50
2023-02-14T15:36:53.842Z,4.40
2023-02-14T15:39:52.482Z,4.40
2023-02-14T15:42:40.876Z,4.40
2023-02-14T15:45:27.676Z,4.50
2023-02-14T15:48:20.878Z,4.60
2023-02-14T15:51:06.789Z,4.40
2023-02-14T15:53:53.799Z,4.40
2023-02-14T15:56:48.820Z,4.40
2023-02-14T15:59:35.392Z,4.30
2023-02-14T16:02:33.277Z,4.10
2023-02-14T16:05:24.631Z,4.10
2023-02-14T16:08:35.379Z,4.20
2023-02-14T16:11:37.952Z,4.20
2023-02-14T16:14:37.202Z,4.30
2023-02-14T16:17:35.564Z,4.30
2023-02-14T16:20:23.589Z,4.30
2023-02-14T16:23:29.389Z,4.30
2023-02-14T16:26:14.911Z,4.30
2023-02-14T16:29:03.784Z,4.50
2023-02-14T16:35:00.764Z,4.50
2023-02-14T16:37:47.485Z,4.40
2023-02-14T16:40:33.456Z,4.40
2023-02-14T16:43:20.438Z,4.50
2023-02-14T16:46:05.508Z,4.50
2023-02-14T16:48:52.483Z,4.40
2023-02-14T16:51:40.785Z,5.20
2023-02-14T16:54:26.940Z,5.50
2023-02-14T16:57:28.102Z,5.30
2023-02-14T17:00:14.250Z,5.00
2023-02-14T17:03:11.252Z,4.70
2023-02-14T17:05:58.005Z,4.70
2023-02-14T17:08:43.967Z,4.60
2023-02-14T17:11:32.514Z,4.60
2023-02-14T17:14:22.155Z,4.50
2023-02-14T17:17:07.633Z,4.40
2023-02-14T17:19:53.219Z,4.20
2023-02-14T17:22:39.032Z,4.20
2023-02-14T17:25:24.101Z,4.00
2023-02-14T17:28:10.755Z,3.90
2023-02-14T17:30:57.031Z,3.90
2023-02-14T17:33:43.383Z,3.80
2023-02-14T17:36:30.082Z,3.60
2023-02-14T17:39:18.221Z,3.70
2023-02-14T17:42:03.858Z,3.70
2023-02-14T17:44:49.128Z,3.70
2023-02-14T17:47:34.822Z,3.80
2023-02-14T17:50:20.099Z,3.80
2023-02-14T17:53:05.612Z,3.70
2023-02-14T17:55:51.047Z,3.70
2023-02-14T17:58:36.548Z,3.80
2023-02-14T18:01:25.226Z,3.70
2023-02-14T18:04:10.503Z,3.70
2023-02-14T18:06:55.964Z,3.70
2023-02-14T18:09:41.405Z,3.80
2023-02-14T18:12:26.830Z,3.80
2023-02-14T18:15:12.276Z,3.90
2023-02-14T18:17:57.595Z,3.90
2023-02-14T18:20:43.088Z,3.80
2023-02-14T18:23:30.603Z,3.80
2023-02-14T18:26:18.266Z,3.50
2023-02-14T18:29:06.723Z,3.40
2023-02-14T18:31:52.230Z,3.40
2023-02-14T18:34:38.248Z,3.30
2023-02-14T18:37:23.375Z,3.30
2023-02-14T18:40:11.211Z,3.30
2023-02-14T18:42:56.329Z,3.40
2023-02-14T18:45:41.741Z,3.40
2023-02-14T18:48:26.996Z,3.50
2023-02-14T18:51:18.622Z,3.40
2023-02-14T18:54:04.985Z,3.50
2023-02-14T18:56:50.688Z,3.50
2023-02-14T18:59:35.699Z,3.50
2023-02-14T19:02:21.935Z,3.60
2023-02-14T19:05:08.185Z,3.60
2023-02-14T19:07:55.062Z,3.60
2023-02-14T19:10:40.497Z,3.60
2023-02-14T19:13:29.106Z,3.60
2023-02-14T19:16:18.223Z,3.60
2023-02-14T19:19:04.597Z,3.50
2023-02-14T19:21:50.806Z,3.50
2023-02-14T19:24:36.232Z,3.50
2023-02-14T19:27:22.372Z,3.50
2023-02-14T19:30:08.077Z,3.70
2023-02-14T19:32:53.260Z,4.00
2023-02-14T19:35:38.770Z,4.10
2023-02-14T19:38:24.198Z,4.10
2023-02-14T19:41:26.104Z,4.10
2023-02-14T19:44:13.807Z,4.20
2023-02-14T19:47:01.886Z,4.30
2023-02-14T19:49:49.745Z,4.40
2023-02-14T19:52:35.092Z,4.40
2023-02-14T19:55:22.734Z,4.40
2023-02-14T19:58:08.016Z,4.30
2023-02-14T20:00:59.657Z,4.20
2023-02-14T20:03:44.981Z,4.10
2023-02-14T20:06:30.702Z,4.00
2023-02-14T20:09:17.518Z,3.80
2023-02-14T20:12:03.441Z,3.70
2023-02-14T20:14:51.764Z,3.70
2023-02-14T20:17:37.503Z,3.70
2023-02-14T20:20:23.427Z,3.70
2023-02-14T20:23:08.729Z,3.60
2023-02-14T20:25:54.154Z,3.40
2023-02-14T20:28:39.457Z,3.30
2023-02-14T20:31:24.916Z,3.30
2023-02-14T20:34:11.041Z,3.30
2023-02-14T20:36:58.552Z,3.10
2023-02-14T20:39:43.877Z,3.10
2023-02-14T20:42:29.208Z,3.10
2023-02-14T20:45:14.650Z,3.00
2023-02-14T20:48:04.014Z,2.90
2023-02-14T20:50:49.418Z,3.00
2023-02-14T20:53:34.641Z,3.10
2023-02-14T20:56:20.962Z,3.10
2023-02-14T20:59:07.234Z,3.00
2023-02-14T21:01:53.738Z,2.80
2023-02-14T21:04:38.862Z,2.80
2023-02-14T21:07:31.067Z,2.70
2023-02-14T21:10:16.297Z,2.80
2023-02-14T21:13:01.668Z,2.80
2023-02-14T21:15:47.078Z,2.90
2023-02-14T21:18:33.718Z,2.80
2023-02-14T21:21:25.774Z,2.80
2023-02-14T21:24:15.895Z,2.80
2023-02-14T21:27:01.780Z,2.80
2023-02-14T21:29:46.915Z,2.80
2023-02-14T21:32:32.322Z,2.80
2023-02-14T21:35:17.717Z,2.80
2023-02-14T21:38:03.199Z,2.80
2023-02-14T21:40:48.550Z,2.90
2023-02-14T21:43:35.672Z,2.80
2023-02-14T21:46:31.073Z,2.80
2023-02-14T21:49:34.983Z,2.70
2023-02-14T21:52:20.421Z,2.60
2023-02-14T21:55:06.782Z,2.60
2023-02-14T21:57:52.107Z,2.60
2023-02-14T22:00:37.552Z,2.70
2023-02-14T22:03:23.417Z,2.70
2023-02-14T22:06:10.195Z,2.40
2023-02-14T22:08:59.111Z,2.60
2023-02-14T22:11:44.859Z,2.60
2023-02-14T22:14:30.607Z,2.60
2023-02-14T22:17:15.745Z,2.60
2023-02-14T22:20:01.354Z,2.80
2023-02-14T22:22:46.862Z,2.80
2023-02-14T22:25:32.135Z,2.80
2023-02-14T22:28:17.500Z,2.80
2023-02-14T22:31:03.341Z,2.70
2023-02-14T22:33:49.596Z,2.70
2023-02-14T22:36:35.238Z,2.60
2023-02-14T22:39:20.427Z,2.40
2023-02-14T22:42:06.827Z,2.40
2023-02-14T22:44:51.837Z,2.30
2023-02-14T22:47:37.187Z,2.30
2023-02-14T22:50:22.451Z,2.20
2023-02-14T22:53:08.006Z,2.20
2023-02-14T22:55:53.329Z,2.30
2023-02-14T22:58:39.189Z,2.40
2023-02-14T23:01:26.208Z,2.30
2023-02-14T23:04:11.609Z,2.20
2023-02-14T23:06:56.692Z,2.30
2023-02-14T23:09:42.170Z,2.30
2023-02-14T23:12:46.191Z,2.40
2023-02-14T23:15:49.995Z,2.30
2023-02-14T23:18:53.983Z,2.20
2023-02-14T23:21:57.136Z,2.20
2023-02-14T23:24:42.154Z,2.00
2023-02-14T23:27:39.247Z,2.30
2023-02-14T23:30:24.498Z,2.40
2023-02-14T23:33:09.950Z,2.50
2023-02-14T23:35:55.350Z,2.60
2023-02-14T23:38:40.688Z,2.60
2023-02-14T23:41:44.668Z,2.60
2023-02-14T23:44:30.723Z,2.70
2023-02-14T23:47:18.959Z,2.60
2023-02-14T23:50:04.004Z,2.60
2023-02-14T23:52:49.412Z,2.60
2023-02-14T23:55:34.943Z,2.60
2023-02-14T23:58:20.206Z,2.40
